WetterOnline ( https://www.wetteronline.de )

Wetter aktuell Koblenz

Aktuelles Wetter: Andernach (75m)

6-stündlich | Neueste Meldungen
Ortszeit Temperatur Wetter
Fr, 23.02. 19:00 7.2° C wolkig
Fr, 23.02. 13:00 6.9° C bedeckt
Fr, 23.02. 7:00 5.5° C bewölkt
Fr, 23.02. 1:00 8.0° C leicht bewölkt
Do, 22.02. 19:00 12.2° C leichter Regen
Do, 22.02. 13:00 12.7° C bewölkt
Do, 22.02. 7:00 9.7° C bedeckt
Do, 22.02. 1:00 8.9° C Regen
Ortszeit Temperatur Wetter
Fr, 23.02. 21:30 6.2° C bewölkt
Fr, 23.02. 21:20 6.2° C bewölkt
Fr, 23.02. 21:10 6.5° C bedeckt
Fr, 23.02. 21:00 6.8° C wolkig
Fr, 23.02. 20:50 6.8° C wolkig
Fr, 23.02. 20:40 6.8° C bedeckt
Fr, 23.02. 20:30 6.8° C bedeckt
Fr, 23.02. 20:00 6.6° C wolkig
Fr, 23.02. 19:30 7.1° C bewölkt
Fr, 23.02. 19:00 7.2° C wolkig
Fr, 23.02. 18:30 7.6° C bewölkt
Ortszeit Relative Feuchte Sichtweite
Fr, 23.02. 19:00 70% 55 km
Fr, 23.02. 13:00 78% 45 km
Fr, 23.02. 7:00 75% 50 km
Fr, 23.02. 1:00 66% 65 km
Do, 22.02. 19:00 84% 13 km
Do, 22.02. 13:00 81% 65 km
Do, 22.02. 7:00 89% >70 km
Do, 22.02. 1:00 89% 55 km
Ortszeit Relative Feuchte Sichtweite
Fr, 23.02. 21:30 79% 55 km
Fr, 23.02. 21:20 79% -
Fr, 23.02. 21:10 77% -
Fr, 23.02. 21:00 75% 65 km
Fr, 23.02. 20:50 75% -
Fr, 23.02. 20:40 75% -
Fr, 23.02. 20:30 74% 65 km
Fr, 23.02. 20:00 75% 65 km
Fr, 23.02. 19:30 72% 65 km
Fr, 23.02. 19:00 70% 55 km
Fr, 23.02. 18:30 68% 55 km
Ortszeit Niederschlagsmenge Niederschlagsart
Fr, 23.02. 19:00 0.1 l/m2 in 12 Std. Regen
Fr, 23.02. 13:00 0.1 l/m2 in 6 Std. Regen
Fr, 23.02. 7:00 0.3 l/m2 in 12 Std. Regen
Fr, 23.02. 1:00 0.3 l/m2 in 6 Std. Regen
Do, 22.02. 19:00 0.1 l/m2 in 12 Std. Regen
Do, 22.02. 13:00 0.1 l/m2 in 6 Std. Sprühregen
Do, 22.02. 7:00 3 l/m2 in 12 Std. Regen
Do, 22.02. 1:00 2 l/m2 in 6 Std. Regen
Ortszeit Niederschlagsmenge Niederschlagsart
Fr, 23.02. 21:30 0.0 l/m2 in 30 Min -
Fr, 23.02. 21:20 keine Meldung -
Fr, 23.02. 21:10 keine Meldung -
Fr, 23.02. 21:00 <0.05 l/m2 in 1 Std. Regen
Fr, 23.02. 20:50 keine Meldung -
Fr, 23.02. 20:40 keine Meldung -
Fr, 23.02. 20:30 0.0 l/m2 in 30 Min -
Fr, 23.02. 20:00 0.0 l/m2 in 1 Std. -
Fr, 23.02. 19:30 0.0 l/m2 in 30 Min -
Fr, 23.02. 19:00 0.0 l/m2 in 1 Std. Regen
Fr, 23.02. 18:30 0.0 l/m2 in 30 Min -
Ortszeit Stärke Spitze Richtung
km/h Bft. km/h Grad Sektor
Fr, 23.02. 19:00 7 2 32 150° SO
Fr, 23.02. 13:00 20 4 39 210° SW
Fr, 23.02. 7:00 9 2 44 200° S
Fr, 23.02. 1:00 18 3 72 230° SW
Do, 22.02. 19:00 31 5 59 200° S
Do, 22.02. 13:00 19 3 35 190° S
Do, 22.02. 7:00 7 2 32 190° S
Do, 22.02. 1:00 17 3 30 190° S
Ortszeit Stärke Spitze Richtung
km/h Bft. km/h Grad Sektor
Fr, 23.02. 21:30 4 1 14 190° S
Fr, 23.02. 21:20 4 1 - 190° S
Fr, 23.02. 21:10 7 2 - 170° S
Fr, 23.02. 21:00 7 2 19 180° S
Fr, 23.02. 20:50 7 2 - 180° S
Fr, 23.02. 20:40 9 2 - 190° S
Fr, 23.02. 20:30 9 2 19 180° S
Fr, 23.02. 20:00 7 2 14 160° S
Fr, 23.02. 19:30 7 2 14 180° S
Fr, 23.02. 19:00 7 2 22 150° SO
Fr, 23.02. 18:30 11 2 22 130° SO
Ortszeit Untergrenze Bedeckung Gattung
total tief tief mittel hoch
Fr, 23.02. 19:00 1500 m 6/8 6/8 - - -
Fr, 23.02. 13:00 720 m 8/8 8/8 - - -
Fr, 23.02. 7:00 870 m 7/8 7/8 - - -
Fr, 23.02. 1:00 2400 m 6/8 1/8 - - -
Do, 22.02. 19:00 840 m 8/8 8/8 - - -
Do, 22.02. 13:00 600 m 7/8 7/8 - - -
Do, 22.02. 7:00 1800 m 8/8 8/8 - - -
Do, 22.02. 1:00 600 m 8/8 8/8 - - -
Ortszeit Bedeckungsgrad in Achtel und Wolkenuntergrenze
Fr, 23.02. 21:30 5(1470m) 8(3900m) 8(4800m)
Fr, 23.02. 21:20 5(1470m) 8(3900m) 8(4800m)
Fr, 23.02. 21:10 8
Fr, 23.02. 21:00 2(1500m) 8(3300m) 8(5700m)
Fr, 23.02. 20:50 2(1500m) 8(3300m) 8(5700m)
Fr, 23.02. 20:40 8
Fr, 23.02. 20:30 4(1500m) 8(2700m) 8(3300m)
Fr, 23.02. 20:00 2(1500m) 7(3900m) 7(6300m)
Fr, 23.02. 19:30 7(1500m) 7(1800m) 7(2100m)
Fr, 23.02. 19:00 1(1500m) 6(1800m)
Fr, 23.02. 18:30 6(1800m) 7(3300m)
Ortszeit Luftdruck NN (hPa) Tendenz (hPa in 3 Std.)
Fr, 23.02. 19:00 996 + 0,1
Fr, 23.02. 13:00 997 + 0,2
Fr, 23.02. 7:00 995 + 0,1
Fr, 23.02. 1:00 991 + 4,3
Do, 22.02. 19:00 984 - 3,3
Do, 22.02. 13:00 992 - 3,6
Do, 22.02. 7:00 999 - 2,2
Do, 22.02. 1:00 1004 - 3,2
Ortszeit Luftdruck NN (hPa) Tendenz (hPa in 3 Std.)
Fr, 23.02. 21:30 997 + 0,9
Fr, 23.02. 21:20 997 keine Meldung
Fr, 23.02. 21:10 997 keine Meldung
Fr, 23.02. 21:00 997 + 0,9
Fr, 23.02. 20:50 997 keine Meldung
Fr, 23.02. 20:40 997 keine Meldung
Fr, 23.02. 20:30 997 + 0,8
Fr, 23.02. 20:00 997 + 0,6
Fr, 23.02. 19:30 997 + 0,7
Fr, 23.02. 19:00 996 + 0,1
Fr, 23.02. 18:30 996 - 0,1
Ortszeit Schneehöhe (cm)
Fr, 23.02. 19:00 0
Fr, 23.02. 13:00 0
Fr, 23.02. 7:00 0
Fr, 23.02. 1:00 0
Do, 22.02. 19:00 0
Do, 22.02. 13:00 0
Do, 22.02. 7:00 0
Do, 22.02. 1:00 0
Ortszeit Schneehöhe (cm)
Fr, 23.02. 21:30 0
Fr, 23.02. 21:20 0
Fr, 23.02. 21:10 -
Fr, 23.02. 21:00 0
Fr, 23.02. 20:50 0
Fr, 23.02. 20:40 -
Fr, 23.02. 20:30 0
Fr, 23.02. 20:00 0
Fr, 23.02. 19:30 0
Fr, 23.02. 19:00 0
Fr, 23.02. 18:30 0
Link zu dieser Seite / Seite empfehlen

Das Wetter in ...